Terminal Aerodrome Forecast
Issued by NWS

Home | Current Version | Previous Version | Text Only | Print | Product List | Glossary On
Versions: 1 2 3 4 5 6 7 8 9 10 11 12 13 14 15 16 17 18 19 20 21 22 23 24 25 26 27 28 29 30 31 32 33 34 35 36 37 38
000
FTUS46 KOTX 272330
TAFSFF
TAF
KSFF 272330Z 2800/2824 21007KT 1SM -SN BKN007 OVC012
     FM280100 21004KT 4SM BR BKN012 OVC020
     FM280700 VRB03KT 4SM BR BKN008 OVC050
     FM281600 00000KT 5SM -SHSN BR OVC025
     FM282000 04006KT P6SM VCSH BKN030 OVC060=

USA.gov is the U.S. government's official web portal to all federal, state and local government web resources and services.